createdAt,value
2023-02-05T00:02:07.289Z,9.8
2023-02-05T00:05:09.194Z,8.8
2023-02-05T00:08:11.154Z,9.6
2023-02-05T00:11:13.108Z,8.8
2023-02-05T00:14:15.117Z,10.2
2023-02-05T00:17:17.053Z,10.7
2023-02-05T00:20:18.988Z,8.1
2023-02-05T00:23:20.982Z,9.9
2023-02-05T00:26:22.949Z,9.3
2023-02-05T00:29:24.914Z,9.5
2023-02-05T00:32:26.836Z,10.2
2023-02-05T00:35:28.819Z,10.4
2023-02-05T00:38:30.765Z,8.8
2023-02-05T00:41:32.767Z,6.8
2023-02-05T00:44:34.697Z,7.4
2023-02-05T00:47:36.657Z,6.3
2023-02-05T00:50:38.630Z,10.1
2023-02-05T00:53:40.713Z,8.5
2023-02-05T00:56:42.702Z,8.3
2023-02-05T00:59:44.633Z,7.2
2023-02-05T01:02:46.700Z,8.9
2023-02-05T01:05:48.601Z,9.4
2023-02-05T01:08:50.509Z,8.4
2023-02-05T01:11:52.486Z,9.3
2023-02-05T01:14:54.437Z,9.4
2023-02-05T01:17:56.434Z,9
2023-02-05T01:20:58.377Z,9.2
2023-02-05T01:24:00.325Z,11
2023-02-05T01:27:02.369Z,9.3
2023-02-05T01:30:04.405Z,9.6
2023-02-05T01:33:06.244Z,10.1
2023-02-05T01:36:08.240Z,7.5
2023-02-05T01:39:10.180Z,8.1
2023-02-05T01:42:12.146Z,9.6
2023-02-05T01:45:14.104Z,9.6
2023-02-05T01:48:16.030Z,7.9
2023-02-05T01:51:18.033Z,9.2
2023-02-05T01:54:19.989Z,8.3
2023-02-05T01:57:21.943Z,7.5
2023-02-05T02:00:23.902Z,7.7
2023-02-05T02:03:25.830Z,9.6
2023-02-05T02:06:27.788Z,8.3
2023-02-05T02:09:29.742Z,11
2023-02-05T02:12:31.705Z,9.4
2023-02-05T02:15:33.936Z,7
2023-02-05T02:18:35.661Z,8.9
2023-02-05T02:21:37.716Z,6.9
2023-02-05T02:24:39.564Z,10.4
2023-02-05T02:27:41.562Z,9.2
2023-02-05T02:30:43.508Z,6.5
2023-02-05T02:33:45.464Z,10
2023-02-05T02:36:47.423Z,9.4
2023-02-05T02:39:49.373Z,8.4
2023-02-05T02:42:51.294Z,6.6
2023-02-05T02:45:53.292Z,6.9
2023-02-05T02:48:56.736Z,6.5
2023-02-05T02:51:57.246Z,7.4
2023-02-05T02:54:59.160Z,7.9
2023-02-05T02:58:01.120Z,11.3
2023-02-05T03:01:03.125Z,7.4
2023-02-05T03:04:05.127Z,8.6
2023-02-05T03:07:07.001Z,6.3
2023-02-05T03:10:08.972Z,6.4
2023-02-05T03:13:10.918Z,6.4
2023-02-05T03:16:12.924Z,7.8
2023-02-05T03:19:14.867Z,5.8
2023-02-05T03:22:16.841Z,6.3
2023-02-05T03:25:18.798Z,6.1
2023-02-05T03:28:20.776Z,5.6
2023-02-05T03:31:22.752Z,6.1
2023-02-05T03:34:24.656Z,7.5
2023-02-05T03:37:26.602Z,6.4
2023-02-05T03:40:28.557Z,10.5
2023-02-05T03:43:30.532Z,7.9
2023-02-05T03:46:32.478Z,5.8
2023-02-05T03:49:34.711Z,7
2023-02-05T03:52:36.430Z,8.5
2023-02-05T03:55:38.375Z,8.3
2023-02-05T03:58:40.335Z,9.3
2023-02-05T04:01:42.301Z,9.1
2023-02-05T04:04:44.255Z,7.6
2023-02-05T04:07:46.273Z,13.7
2023-02-05T04:10:48.225Z,8.4
2023-02-05T04:13:50.151Z,7.5
2023-02-05T04:16:52.115Z,6.5
2023-02-05T04:19:54.120Z,13.1
2023-02-05T04:22:56.043Z,7.4
2023-02-05T04:25:57.993Z,7.3
2023-02-05T04:28:59.945Z,7.9
2023-02-05T04:32:01.911Z,6.9
2023-02-05T04:35:03.868Z,6.7
2023-02-05T04:38:05.810Z,7
2023-02-05T04:41:07.771Z,6.8
2023-02-05T04:44:09.742Z,8.2
2023-02-05T04:47:11.703Z,6.8
2023-02-05T04:50:13.643Z,8.2
2023-02-05T04:53:15.635Z,7.1
2023-02-05T04:56:17.591Z,8.2
2023-02-05T04:59:19.531Z,5.9
2023-02-05T05:02:21.526Z,6.8
2023-02-05T05:05:23.457Z,8.3
2023-02-05T05:08:25.430Z,5.4
2023-02-05T05:11:27.374Z,7.1
2023-02-05T05:14:29.333Z,10.7
2023-02-05T05:17:31.285Z,9.1
2023-02-05T05:20:33.295Z,7.9
2023-02-05T05:23:35.207Z,8.1
2023-02-05T05:26:37.180Z,7.2
2023-02-05T05:29:39.179Z,7.2
2023-02-05T05:32:41.113Z,7.7
2023-02-05T05:35:43.062Z,9.4
2023-02-05T05:38:45.049Z,8.3
2023-02-05T05:41:47.044Z,9.1
2023-02-05T05:44:48.956Z,9.9
2023-02-05T05:47:50.927Z,12
2023-02-05T05:50:52.866Z,9.1
2023-02-05T05:53:54.847Z,9.5
2023-02-05T05:56:56.796Z,12
2023-02-05T05:59:58.743Z,9.1
2023-02-05T06:03:00.705Z,7.6
2023-02-05T06:06:02.688Z,14.3
2023-02-05T06:09:04.816Z,13
2023-02-05T06:12:06.571Z,10.6
2023-02-05T06:15:08.525Z,11.3
2023-02-05T06:18:10.494Z,10.5
2023-02-05T06:21:12.484Z,10.1
2023-02-05T06:24:14.426Z,12.7
2023-02-05T06:27:16.395Z,11.5
2023-02-05T06:30:18.404Z,10.3
2023-02-05T06:33:20.319Z,11
2023-02-05T06:36:22.279Z,12.8
2023-02-05T06:39:25.156Z,15.3
2023-02-05T06:42:26.251Z,15.2
2023-02-05T06:45:28.176Z,12.8
2023-02-05T06:48:30.181Z,17.5
2023-02-05T06:51:32.164Z,17.9
2023-02-05T06:54:34.067Z,12.1
2023-02-05T06:57:36.032Z,13.7
2023-02-05T07:00:37.998Z,12.5
2023-02-05T07:03:39.971Z,12.6
2023-02-05T07:06:41.928Z,10.8
2023-02-05T07:09:43.883Z,12.1
2023-02-05T07:12:45.846Z,19.9
2023-02-05T07:15:47.988Z,10
2023-02-05T07:18:49.791Z,12.4
2023-02-05T07:21:51.722Z,16.1
2023-02-05T07:24:53.666Z,15.6
2023-02-05T07:27:55.704Z,12.7
2023-02-05T07:31:00.002Z,16.4
2023-02-05T07:33:59.566Z,16.1
2023-02-05T07:37:01.540Z,19.8
2023-02-05T07:40:03.475Z,17.6
2023-02-05T07:43:05.434Z,14.2
2023-02-05T07:46:07.422Z,17.5
2023-02-05T07:49:09.361Z,19.8
2023-02-05T07:52:11.338Z,21.6
2023-02-05T07:55:13.287Z,16.7
2023-02-05T07:58:15.245Z,22.6
2023-02-05T08:01:17.331Z,18.9
2023-02-05T08:04:19.268Z,18.8
2023-02-05T08:07:21.170Z,20.5
2023-02-05T08:10:23.169Z,19
2023-02-05T08:13:25.135Z,19.4
2023-02-05T08:16:27.172Z,21.5
2023-02-05T08:19:29.044Z,21.5
2023-02-05T08:22:30.983Z,19.9
2023-02-05T08:25:33.185Z,18.4
2023-02-05T08:28:35.028Z,19.4
2023-02-05T08:31:36.944Z,20.5
2023-02-05T08:34:38.849Z,19.5
2023-02-05T08:37:40.809Z,23.4
2023-02-05T08:40:42.768Z,23.8
2023-02-05T08:43:44.710Z,18.9
2023-02-05T08:46:49.981Z,17.1
2023-02-05T08:49:48.652Z,25.3
2023-02-05T08:52:50.641Z,19.7
2023-02-05T08:55:52.560Z,16.9
2023-02-05T08:58:54.517Z,16.3
2023-02-05T09:01:56.477Z,19.8
2023-02-05T09:05:07.860Z,18.6
2023-02-05T09:08:00.405Z,18.7
2023-02-05T09:11:02.344Z,19.2
2023-02-05T09:14:04.318Z,24.9
2023-02-05T09:17:06.281Z,20.9
2023-02-05T09:20:08.240Z,20.9
2023-02-05T09:23:10.214Z,21.7
2023-02-05T09:26:12.181Z,25.6
2023-02-05T09:29:14.150Z,23.3
2023-02-05T09:32:16.128Z,23
2023-02-05T09:35:18.113Z,22.6
2023-02-05T09:38:20.060Z,22.2
2023-02-05T09:41:22.021Z,24.5
2023-02-05T09:44:23.948Z,19.1
2023-02-05T09:47:25.991Z,23.9
2023-02-05T09:50:27.897Z,23
2023-02-05T09:53:29.838Z,22
2023-02-05T09:56:31.807Z,25.9
2023-02-05T09:59:33.746Z,19.5
2023-02-05T10:02:35.714Z,20.2
2023-02-05T10:05:37.694Z,24.6
2023-02-05T10:08:39.650Z,25.8
2023-02-05T10:11:41.608Z,22.8
2023-02-05T10:14:43.611Z,26.7
2023-02-05T10:17:45.547Z,25.1
2023-02-05T10:20:47.497Z,25.3
2023-02-05T10:23:49.494Z,22.8
2023-02-05T10:26:51.435Z,30.6
2023-02-05T10:29:53.392Z,28.5
2023-02-05T10:32:55.371Z,26.9
2023-02-05T10:35:57.344Z,26.1
2023-02-05T10:38:59.264Z,26.5
2023-02-05T10:42:01.221Z,26.7
2023-02-05T10:45:03.165Z,26.4
2023-02-05T10:48:05.118Z,28.7
2023-02-05T10:51:07.064Z,28.6
2023-02-05T10:54:09.034Z,24.2
2023-02-05T10:57:10.985Z,29.3
2023-02-05T11:00:12.967Z,25.9
2023-02-05T11:03:14.909Z,26.4
2023-02-05T11:06:16.901Z,31.7
2023-02-05T11:09:18.865Z,24.8
2023-02-05T11:12:20.827Z,30.4
2023-02-05T11:15:22.802Z,37.1
2023-02-05T11:18:24.772Z,31.9
2023-02-05T11:21:26.713Z,32.9
2023-02-05T11:24:28.666Z,27.3
2023-02-05T11:27:30.633Z,31.2
2023-02-05T11:30:49.894Z,24.2
2023-02-05T11:33:34.516Z,25.1
2023-02-05T11:36:36.467Z,23.1
2023-02-05T11:39:38.464Z,27.1
2023-02-05T11:42:40.415Z,25
2023-02-05T11:45:42.368Z,24.6
2023-02-05T11:48:44.343Z,29.2
2023-02-05T11:51:46.292Z,24.7
2023-02-05T11:54:48.271Z,25.3
2023-02-05T11:57:50.276Z,27.5
2023-02-05T12:00:52.214Z,25.3
2023-02-05T12:03:54.158Z,27.6
2023-02-05T12:06:56.131Z,23.4
2023-02-05T12:09:58.125Z,26.3
2023-02-05T12:13:00.086Z,28.2
2023-02-05T12:16:02.085Z,23.1
2023-02-05T12:19:03.998Z,32.7
2023-02-05T12:22:05.947Z,26.2
2023-02-05T12:25:08.608Z,25.9
2023-02-05T12:28:10.062Z,22.5
2023-02-05T12:31:11.837Z,28.4
2023-02-05T12:34:13.794Z,28.1
2023-02-05T12:37:15.787Z,26.7
2023-02-05T12:40:17.722Z,22.6
2023-02-05T12:43:19.745Z,24.9
2023-02-05T12:46:21.769Z,23.5
2023-02-05T12:49:23.623Z,21.8
2023-02-05T12:52:25.606Z,22.7
2023-02-05T12:55:27.561Z,20.4
2023-02-05T12:58:29.557Z,19.7
2023-02-05T13:01:31.551Z,22.4
2023-02-05T13:04:33.509Z,21.7
2023-02-05T13:07:35.673Z,17.4
2023-02-05T13:10:37.413Z,18.9
2023-02-05T13:13:39.422Z,20
2023-02-05T13:16:41.564Z,20.9
2023-02-05T13:19:43.324Z,23
2023-02-05T13:22:45.299Z,21.6
2023-02-05T13:25:47.252Z,17.7
2023-02-05T13:28:49.206Z,18.6
2023-02-05T13:31:51.173Z,20.4
2023-02-05T13:34:53.151Z,22.4
2023-02-05T13:37:55.099Z,16.2
2023-02-05T13:40:57.100Z,19.6
2023-02-05T13:43:59.047Z,14.4
2023-02-05T13:47:01.011Z,13.1
2023-02-05T13:50:03.000Z,12
2023-02-05T13:53:04.966Z,10.5
2023-02-05T13:56:06.928Z,10.1
2023-02-05T13:59:08.892Z,11.8
2023-02-05T14:02:10.942Z,16.3
2023-02-05T14:05:12.841Z,18.6
2023-02-05T14:08:14.803Z,16.2
2023-02-05T14:11:16.786Z,16.8
2023-02-05T14:14:18.746Z,17.6
2023-02-05T14:17:20.703Z,22.1
2023-02-05T14:20:22.748Z,17.4
2023-02-05T14:23:24.779Z,17.5
2023-02-05T14:26:26.745Z,19
2023-02-05T14:29:28.746Z,21.6
2023-02-05T14:32:30.686Z,17.8
2023-02-05T14:35:32.920Z,25
2023-02-05T14:38:34.607Z,20.8
2023-02-05T14:41:36.590Z,16.7
2023-02-05T14:44:38.535Z,19.7
2023-02-05T14:47:40.498Z,20
2023-02-05T14:50:42.459Z,17.3
2023-02-05T14:53:44.454Z,16.6
2023-02-05T14:56:46.375Z,17.8
2023-02-05T14:59:48.384Z,15.4
2023-02-05T15:02:50.381Z,17.9
2023-02-05T15:05:52.302Z,16.5
2023-02-05T15:08:54.271Z,19.8
2023-02-05T15:11:56.202Z,15.8
2023-02-05T15:14:58.178Z,15.3
2023-02-05T15:18:00.147Z,14.9
2023-02-05T15:21:02.150Z,14.6
2023-02-05T15:24:04.127Z,15.2
2023-02-05T15:27:06.101Z,19.7
2023-02-05T15:30:08.108Z,17.6
2023-02-05T15:33:10.060Z,16.4
2023-02-05T15:36:12.040Z,17.8
2023-02-05T15:39:13.980Z,17.3
2023-02-05T15:42:15.937Z,15.7
2023-02-05T15:45:17.914Z,18
2023-02-05T15:48:19.871Z,16.5
2023-02-05T15:51:21.871Z,16.4
2023-02-05T15:54:23.837Z,19.2
2023-02-05T15:57:25.839Z,17.8
2023-02-05T16:00:27.790Z,18.7
2023-02-05T16:03:29.717Z,18.5
2023-02-05T16:06:31.677Z,21.7
2023-02-05T16:09:33.674Z,19.3
2023-02-05T16:12:35.616Z,19.9
2023-02-05T16:15:37.611Z,23.5
2023-02-05T16:18:39.609Z,20.9
2023-02-05T16:21:41.552Z,18.6
2023-02-05T16:24:43.550Z,19.9
2023-02-05T16:27:45.590Z,19.6
2023-02-05T16:30:47.494Z,18.9
2023-02-05T16:33:49.401Z,16.8
2023-02-05T16:36:51.390Z,19.2
2023-02-05T16:39:53.384Z,16.7
2023-02-05T16:42:55.346Z,18.1
2023-02-05T16:45:57.297Z,17.7
2023-02-05T16:48:59.253Z,18.5
2023-02-05T16:52:01.206Z,18.8
2023-02-05T16:55:03.229Z,18.5
2023-02-05T16:58:05.223Z,16.2
2023-02-05T17:01:07.193Z,14.5
2023-02-05T17:04:09.161Z,17.1
2023-02-05T17:07:11.106Z,16.4
2023-02-05T17:10:13.070Z,14.1
2023-02-05T17:13:15.090Z,16.5
2023-02-05T17:16:17.222Z,23.3
2023-02-05T17:19:18.988Z,18.9
2023-02-05T17:22:20.996Z,16.7
2023-02-05T17:25:22.958Z,19.6
2023-02-05T17:28:24.908Z,19.4
2023-02-05T17:31:26.919Z,21.2
2023-02-05T17:34:28.831Z,22
2023-02-05T17:37:30.813Z,19
2023-02-05T17:40:32.965Z,15.7
2023-02-05T17:43:34.759Z,20
2023-02-05T17:46:36.715Z,15.4
2023-02-05T17:49:38.670Z,15.2
2023-02-05T17:52:40.660Z,16
2023-02-05T17:55:42.617Z,21.1
2023-02-05T17:58:44.528Z,23.1
2023-02-05T18:01:46.540Z,20.4
2023-02-05T18:04:48.498Z,22.7
2023-02-05T18:07:50.441Z,18.2
2023-02-05T18:10:52.404Z,15.4
2023-02-05T18:13:54.370Z,17.6
2023-02-05T18:16:56.467Z,15.1
2023-02-05T18:19:58.299Z,15.8
2023-02-05T18:23:00.263Z,14.9
2023-02-05T18:26:02.212Z,15.4
2023-02-05T18:29:04.134Z,16.2
2023-02-05T18:32:06.136Z,17.5
2023-02-05T18:35:08.068Z,17.7
2023-02-05T18:38:10.080Z,16.3
2023-02-05T18:41:12.008Z,15.7
2023-02-05T18:44:13.978Z,19.1
2023-02-05T18:47:16.042Z,18.3
2023-02-05T18:50:17.923Z,16.5
2023-02-05T18:53:19.920Z,14.4
2023-02-05T18:56:21.891Z,15.9
2023-02-05T18:59:23.850Z,16.6
2023-02-05T19:02:25.791Z,14.9
2023-02-05T19:05:27.822Z,13.2
2023-02-05T19:08:29.734Z,15.9
2023-02-05T19:11:31.733Z,16.2
2023-02-05T19:14:33.650Z,16.8
2023-02-05T19:17:35.614Z,16.9
2023-02-05T19:20:37.581Z,16
2023-02-05T19:23:39.565Z,14.9
2023-02-05T19:26:41.520Z,18.3
2023-02-05T19:29:43.509Z,16.5
2023-02-05T19:32:45.458Z,17.2
2023-02-05T19:35:47.455Z,18.6
2023-02-05T19:38:49.406Z,18
2023-02-05T19:41:51.346Z,19.2
2023-02-05T19:44:53.326Z,16.7
2023-02-05T19:47:55.325Z,19.6
2023-02-05T19:50:57.313Z,19.8
2023-02-05T19:53:59.205Z,16
2023-02-05T19:57:01.144Z,19.7
2023-02-05T20:00:03.147Z,19
2023-02-05T20:03:05.126Z,19.4
2023-02-05T20:06:07.046Z,15.3
2023-02-05T20:09:09.011Z,17.9
2023-02-05T20:12:12.909Z,17.4
2023-02-05T20:15:12.939Z,16.6
2023-02-05T20:18:14.912Z,17.9
2023-02-05T20:21:16.880Z,19
2023-02-05T20:24:18.856Z,14.8
2023-02-05T20:27:20.811Z,18.5
2023-02-05T20:30:22.890Z,18.3
2023-02-05T20:33:24.726Z,17.1
2023-02-05T20:36:26.737Z,17.6
2023-02-05T20:39:28.673Z,16.6
2023-02-05T20:42:30.633Z,19.1
2023-02-05T20:45:33.702Z,16.4
2023-02-05T20:48:34.588Z,17.1
2023-02-05T20:51:36.778Z,16.7
2023-02-05T20:54:38.488Z,17.7
2023-02-05T20:57:40.465Z,16.9
2023-02-05T21:00:42.470Z,17.2
2023-02-05T21:03:44.382Z,14.3
2023-02-05T21:06:46.359Z,14
2023-02-05T21:09:48.304Z,17.1
2023-02-05T21:12:50.297Z,14.5
2023-02-05T21:15:52.422Z,14.7
2023-02-05T21:18:54.203Z,16.6
2023-02-05T21:21:56.177Z,20.5
2023-02-05T21:24:58.151Z,16.8
2023-02-05T21:28:00.182Z,16.3
2023-02-05T21:31:02.177Z,17.4
2023-02-05T21:34:04.052Z,19.3
2023-02-05T21:37:06.010Z,16.9
2023-02-05T21:40:09.527Z,17.6
2023-02-05T21:43:09.887Z,15.7
2023-02-05T21:46:11.855Z,17.2
2023-02-05T21:49:13.803Z,20.4
2023-02-05T21:52:15.770Z,16.4
2023-02-05T21:55:17.717Z,15.5
2023-02-05T21:58:19.681Z,16.7
2023-02-05T22:01:21.694Z,14.6
2023-02-05T22:04:23.674Z,15
2023-02-05T22:07:25.619Z,18
2023-02-05T22:10:27.578Z,16.6
2023-02-05T22:13:29.545Z,15.8
2023-02-05T22:16:31.493Z,16.6
2023-02-05T22:19:33.423Z,17.1
2023-02-05T22:22:35.380Z,16.6
2023-02-05T22:25:37.647Z,18.4
2023-02-05T22:28:39.430Z,19.7
2023-02-05T22:31:41.351Z,17.2
2023-02-05T22:34:43.690Z,16.1
2023-02-05T22:37:45.176Z,16.9
2023-02-05T22:40:47.149Z,15.7
2023-02-05T22:43:49.109Z,15.9
2023-02-05T22:46:51.084Z,18.5
2023-02-05T22:49:53.058Z,18
2023-02-05T22:52:54.988Z,20.2
2023-02-05T22:55:57.002Z,17.4
2023-02-05T22:59:00.826Z,16.8
2023-02-05T23:02:00.912Z,18.5
2023-02-05T23:05:02.844Z,20.6
2023-02-05T23:08:04.791Z,24.4
2023-02-05T23:11:06.752Z,25
2023-02-05T23:14:08.708Z,22.7
2023-02-05T23:17:10.685Z,26.3
2023-02-05T23:20:12.675Z,26.9
2023-02-05T23:23:14.594Z,28.3
2023-02-05T23:26:16.559Z,26.5
2023-02-05T23:29:18.519Z,24.9
2023-02-05T23:32:20.526Z,25.1
2023-02-05T23:35:22.444Z,23.8
2023-02-05T23:38:24.401Z,23.7
2023-02-05T23:41:26.388Z,21.6
2023-02-05T23:44:28.360Z,20.3
2023-02-05T23:47:30.326Z,22.4
2023-02-05T23:50:32.258Z,24.8
2023-02-05T23:53:34.246Z,22.1
2023-02-05T23:56:36.181Z,22.9
2023-02-05T23:59:38.160Z,23.7
